createdAt,value
2017-06-15T00:01:30.037Z,3.20
2017-06-15T00:03:58.324Z,3.47
2017-06-15T00:06:25.868Z,3.63
2017-06-15T00:08:53.616Z,2.90
2017-06-15T00:11:21.092Z,3.37
2017-06-15T00:13:48.575Z,3.53
2017-06-15T00:16:16.866Z,4.00
2017-06-15T00:18:44.361Z,4.13
2017-06-15T00:21:11.945Z,3.93
2017-06-15T00:23:39.496Z,3.80
2017-06-15T00:26:07.037Z,3.63
2017-06-15T00:28:34.576Z,3.43
2017-06-15T00:31:02.125Z,3.63
2017-06-15T00:33:29.665Z,3.30
2017-06-15T00:35:57.145Z,4.27
2017-06-15T00:38:24.670Z,3.90
2017-06-15T00:40:52.156Z,4.07
2017-06-15T00:43:19.736Z,3.70
2017-06-15T00:45:47.276Z,3.80
2017-06-15T00:48:14.828Z,3.60
2017-06-15T00:50:42.312Z,3.30
2017-06-15T00:53:09.912Z,3.90
2017-06-15T00:55:37.659Z,3.73
2017-06-15T00:58:05.145Z,3.90
2017-06-15T01:00:32.640Z,4.50
2017-06-15T01:03:00.184Z,4.27
2017-06-15T01:05:27.728Z,3.70
2017-06-15T01:07:55.236Z,4.00
2017-06-15T01:10:22.716Z,3.80
2017-06-15T01:12:50.255Z,3.63
2017-06-15T01:15:17.800Z,4.07
2017-06-15T01:17:45.286Z,3.20
2017-06-15T01:20:12.784Z,3.60
2017-06-15T01:22:40.353Z,3.70
2017-06-15T01:25:07.871Z,3.90
2017-06-15T01:27:35.413Z,3.57
2017-06-15T01:30:02.924Z,3.73
2017-06-15T01:32:30.500Z,4.30
2017-06-15T01:34:57.981Z,4.57
2017-06-15T01:37:25.491Z,4.50
2017-06-15T01:39:53.028Z,4.50
2017-06-15T01:42:20.516Z,4.20
2017-06-15T01:44:48.112Z,4.80
2017-06-15T01:47:15.663Z,4.47
2017-06-15T01:49:43.149Z,4.30
2017-06-15T01:52:10.848Z,4.70
2017-06-15T01:54:38.397Z,4.30
2017-06-15T01:57:05.936Z,4.83
2017-06-15T01:59:33.684Z,5.00
2017-06-15T02:02:01.233Z,5.80
2017-06-15T02:04:28.776Z,5.00
2017-06-15T02:06:56.276Z,4.83
2017-06-15T02:09:23.757Z,4.80
2017-06-15T02:11:51.295Z,5.00
2017-06-15T02:14:18.849Z,5.20
2017-06-15T02:16:46.389Z,4.40
2017-06-15T02:19:13.907Z,5.10
2017-06-15T02:21:42.190Z,4.53
2017-06-15T02:24:10.053Z,5.30
2017-06-15T02:26:37.592Z,5.83
2017-06-15T02:29:05.130Z,4.83
2017-06-15T02:31:32.612Z,5.10
2017-06-15T02:34:00.320Z,5.90
2017-06-15T02:36:27.861Z,5.80
2017-06-15T02:38:55.340Z,5.03
2017-06-15T02:41:23.048Z,5.30
2017-06-15T02:43:50.529Z,5.53
2017-06-15T02:46:18.039Z,5.30
2017-06-15T02:48:45.537Z,6.07
2017-06-15T02:51:13.020Z,5.60
2017-06-15T02:53:40.541Z,6.00
2017-06-15T02:56:08.829Z,5.63
2017-06-15T02:58:36.308Z,6.13
2017-06-15T03:01:03.871Z,5.70
2017-06-15T03:03:31.360Z,5.33
2017-06-15T03:05:58.892Z,6.30
2017-06-15T03:08:26.404Z,6.23
2017-06-15T03:10:54.696Z,6.20
2017-06-15T03:13:22.181Z,5.80
2017-06-15T03:15:49.682Z,5.97
2017-06-15T03:18:17.233Z,5.93
2017-06-15T03:20:44.773Z,6.10
2017-06-15T03:23:12.265Z,5.70
2017-06-15T03:25:39.753Z,5.93
2017-06-15T03:28:08.036Z,6.30
2017-06-15T03:30:35.516Z,6.80
2017-06-15T03:33:03.101Z,6.30
2017-06-15T03:35:30.592Z,5.80
2017-06-15T03:37:58.076Z,7.07
2017-06-15T03:40:25.569Z,6.80
2017-06-15T03:42:53.276Z,6.60
2017-06-15T03:45:20.764Z,5.97
2017-06-15T03:47:48.244Z,6.70
2017-06-15T03:50:16.616Z,6.60
2017-06-15T03:52:44.105Z,6.93
2017-06-15T03:55:11.596Z,7.17
2017-06-15T03:57:40.666Z,6.97
2017-06-15T04:00:08.925Z,7.07
2017-06-15T04:02:37.410Z,7.17
2017-06-15T04:05:04.953Z,6.60
2017-06-15T04:07:32.436Z,7.00
2017-06-15T04:09:59.936Z,7.43
2017-06-15T04:12:27.484Z,8.00
2017-06-15T04:14:54.964Z,8.30
2017-06-15T04:17:22.476Z,7.33
2017-06-15T04:19:50.009Z,7.33
2017-06-15T04:22:17.501Z,7.23
2017-06-15T04:24:45.100Z,7.57
2017-06-15T04:27:12.636Z,7.20
2017-06-15T04:29:40.130Z,6.97
2017-06-15T04:32:07.828Z,7.30
2017-06-15T04:34:35.372Z,6.73
2017-06-15T04:37:02.917Z,6.73
2017-06-15T04:39:30.460Z,8.03
2017-06-15T04:41:58.005Z,7.57
2017-06-15T04:44:25.545Z,7.57
2017-06-15T04:46:53.291Z,6.90
2017-06-15T04:49:20.837Z,8.30
2017-06-15T04:51:48.317Z,6.50
2017-06-15T04:54:15.935Z,8.03
2017-06-15T04:56:43.459Z,7.27
2017-06-15T04:59:10.945Z,7.37
2017-06-15T05:01:38.446Z,6.83
2017-06-15T05:04:05.944Z,7.10
2017-06-15T05:06:33.440Z,7.47
2017-06-15T05:09:00.925Z,7.37
2017-06-15T05:11:28.520Z,7.40
2017-06-15T05:13:56.073Z,8.10
2017-06-15T05:16:23.820Z,8.07
2017-06-15T05:18:51.365Z,8.17
2017-06-15T05:21:18.900Z,7.30
2017-06-15T05:23:46.449Z,8.20
2017-06-15T05:26:13.937Z,7.07
2017-06-15T05:28:41.425Z,9.07
2017-06-15T05:31:09.180Z,7.60
2017-06-15T05:33:36.725Z,7.50
2017-06-15T05:36:04.208Z,7.40
2017-06-15T05:38:31.815Z,7.30
2017-06-15T05:40:59.292Z,8.00
2017-06-15T05:43:26.996Z,6.97
2017-06-15T05:45:54.545Z,7.10
2017-06-15T05:48:22.084Z,7.40
2017-06-15T05:50:49.776Z,7.13
2017-06-15T05:53:17.269Z,7.30
2017-06-15T05:55:44.764Z,6.80
2017-06-15T05:58:12.260Z,7.07
2017-06-15T06:00:39.754Z,7.10
2017-06-15T06:03:07.243Z,6.67
2017-06-15T06:05:34.788Z,6.60
2017-06-15T06:08:02.281Z,6.40
2017-06-15T06:10:29.756Z,6.73
2017-06-15T06:12:58.036Z,7.63
2017-06-15T06:15:25.777Z,6.63
2017-06-15T06:17:53.324Z,6.40
2017-06-15T06:20:20.873Z,6.73
2017-06-15T06:22:48.529Z,6.43
2017-06-15T06:25:16.013Z,6.00
2017-06-15T06:27:43.600Z,5.60
2017-06-15T06:30:11.353Z,5.73
2017-06-15T06:32:38.856Z,5.63
2017-06-15T06:35:06.437Z,5.70
2017-06-15T06:37:33.945Z,6.30
2017-06-15T06:40:01.529Z,5.87
2017-06-15T06:42:29.008Z,5.73
2017-06-15T06:44:56.496Z,5.50
2017-06-15T06:47:24.768Z,5.30
2017-06-15T06:49:52.512Z,4.80
2017-06-15T06:52:20.057Z,4.90
2017-06-15T06:54:47.603Z,4.30
2017-06-15T06:57:15.148Z,5.33
2017-06-15T06:59:42.699Z,5.73
2017-06-15T07:02:10.766Z,5.10
2017-06-15T07:04:38.260Z,5.10
2017-06-15T07:07:05.740Z,5.17
2017-06-15T07:09:33.475Z,5.00
2017-06-15T07:12:01.021Z,4.90
2017-06-15T07:14:28.501Z,5.30
2017-06-15T07:16:56.212Z,5.50
2017-06-15T07:19:23.756Z,5.57
2017-06-15T07:21:51.244Z,5.30
2017-06-15T07:24:18.836Z,6.07
2017-06-15T07:26:46.325Z,6.33
2017-06-15T07:29:13.840Z,5.53
2017-06-15T07:31:41.373Z,5.47
2017-06-15T07:34:08.877Z,5.40
2017-06-15T07:36:36.455Z,5.00
2017-06-15T07:39:03.936Z,5.10
2017-06-15T07:41:31.416Z,6.20
2017-06-15T07:43:59.802Z,4.63
2017-06-15T07:46:28.045Z,6.30
2017-06-15T07:48:56.291Z,5.73
2017-06-15T07:51:24.100Z,6.17
2017-06-15T07:53:51.620Z,6.10
2017-06-15T07:56:19.104Z,5.87
2017-06-15T07:58:46.643Z,5.90
2017-06-15T08:01:14.129Z,6.03
2017-06-15T08:03:42.374Z,5.63
2017-06-15T08:06:10.053Z,6.50
2017-06-15T08:08:37.592Z,5.80
2017-06-15T08:11:05.072Z,5.90
2017-06-15T08:13:32.577Z,6.60
2017-06-15T08:16:00.053Z,6.20
2017-06-15T08:18:27.560Z,6.87
2017-06-15T08:20:56.364Z,6.33
2017-06-15T08:23:23.964Z,7.27
2017-06-15T08:25:52.208Z,6.27
2017-06-15T08:28:19.783Z,7.40
2017-06-15T08:30:47.328Z,6.23
2017-06-15T08:33:14.804Z,6.37
2017-06-15T08:35:42.316Z,6.83
2017-06-15T08:38:10.061Z,6.47
2017-06-15T08:40:37.604Z,7.67
2017-06-15T08:43:05.153Z,6.50
2017-06-15T08:45:32.688Z,6.97
2017-06-15T08:48:00.265Z,7.70
2017-06-15T08:50:27.776Z,6.67
2017-06-15T08:52:55.272Z,7.77
2017-06-15T08:55:22.749Z,6.87
2017-06-15T08:57:51.024Z,7.13
2017-06-15T09:00:18.560Z,8.03
2017-06-15T09:02:46.044Z,7.30
2017-06-15T09:05:13.756Z,6.43
2017-06-15T09:07:41.300Z,7.17
2017-06-15T09:10:08.776Z,7.30
2017-06-15T09:12:36.287Z,7.33
2017-06-15T09:15:03.832Z,6.73
2017-06-15T09:17:31.572Z,6.83
2017-06-15T09:19:59.117Z,6.40
2017-06-15T09:22:26.596Z,7.40
2017-06-15T09:24:54.205Z,7.50
2017-06-15T09:27:21.684Z,7.30
2017-06-15T09:29:49.292Z,7.13
2017-06-15T09:32:17.041Z,7.70
2017-06-15T09:34:44.532Z,7.40
2017-06-15T09:37:12.020Z,6.90
2017-06-15T09:39:44.280Z,7.07
2017-06-15T09:42:11.765Z,8.00
2017-06-15T09:44:39.274Z,7.27
2017-06-15T09:47:06.780Z,7.03
2017-06-15T09:49:35.068Z,6.97
2017-06-15T09:52:02.553Z,6.50
2017-06-15T09:54:34.154Z,6.80
2017-06-15T09:57:01.632Z,7.30
2017-06-15T09:59:29.109Z,7.43
2017-06-15T10:01:57.491Z,8.10
2017-06-15T10:04:24.976Z,7.53
2017-06-15T10:06:52.457Z,6.90
2017-06-15T10:09:20.941Z,7.40
2017-06-15T10:11:48.429Z,7.20
2017-06-15T10:14:15.908Z,7.10
2017-06-15T10:16:44.389Z,7.80
2017-06-15T10:19:11.920Z,7.63
2017-06-15T10:21:41.028Z,7.90
2017-06-15T10:24:08.572Z,6.70
2017-06-15T10:26:36.110Z,8.17
2017-06-15T10:29:03.588Z,8.20
2017-06-15T10:31:31.064Z,7.53
2017-06-15T10:33:59.473Z,7.43
2017-06-15T10:36:26.955Z,7.40
2017-06-15T10:38:54.435Z,7.83
2017-06-15T10:41:22.180Z,7.60
2017-06-15T10:43:49.724Z,6.73
2017-06-15T10:46:17.272Z,8.37
2017-06-15T10:48:44.940Z,6.63
2017-06-15T10:51:13.466Z,6.50
2017-06-15T10:53:41.713Z,7.23
2017-06-15T10:56:10.083Z,6.23
2017-06-15T10:58:38.365Z,6.50
2017-06-15T11:01:05.848Z,6.30
2017-06-15T11:03:33.354Z,6.27
2017-06-15T11:06:00.892Z,6.30
2017-06-15T11:08:28.377Z,6.27
2017-06-15T11:10:55.853Z,6.43
2017-06-15T11:13:24.241Z,6.50
2017-06-15T11:15:51.780Z,6.40
2017-06-15T11:18:19.260Z,6.50
2017-06-15T11:20:46.865Z,7.43
2017-06-15T11:23:14.418Z,6.67
2017-06-15T11:25:41.915Z,6.07
2017-06-15T11:28:09.593Z,6.00
2017-06-15T11:30:37.836Z,6.70
2017-06-15T11:33:05.800Z,6.37
2017-06-15T11:35:34.289Z,5.97
2017-06-15T11:38:01.842Z,6.00
2017-06-15T11:40:29.372Z,6.40
2017-06-15T11:42:57.120Z,6.00
2017-06-15T11:45:24.661Z,6.10
2017-06-15T11:47:52.141Z,5.60
2017-06-15T11:50:19.632Z,6.07
2017-06-15T11:52:47.911Z,6.00
2017-06-15T11:55:15.428Z,5.50
2017-06-15T11:57:43.713Z,5.90
2017-06-15T12:00:11.205Z,5.70
2017-06-15T12:02:39.492Z,5.60
2017-06-15T12:05:07.772Z,5.00
2017-06-15T12:07:35.248Z,4.77
2017-06-15T12:10:03.646Z,5.50
2017-06-15T12:12:31.261Z,4.90
2017-06-15T12:14:58.798Z,5.97
2017-06-15T12:17:26.304Z,5.63
2017-06-15T12:19:53.784Z,5.20
2017-06-15T12:22:21.265Z,4.87
2017-06-15T12:24:49.552Z,4.63
2017-06-15T12:27:17.048Z,4.60
2017-06-15T12:29:44.562Z,4.30
2017-06-15T12:32:12.079Z,4.80
2017-06-15T12:34:39.565Z,4.83
2017-06-15T12:37:07.056Z,4.57
2017-06-15T12:39:35.452Z,5.07
2017-06-15T12:42:04.979Z,4.80
2017-06-15T12:44:32.573Z,4.40
2017-06-15T12:47:00.061Z,4.40
2017-06-15T12:49:27.553Z,4.40
2017-06-15T12:51:55.095Z,4.20
2017-06-15T12:54:22.739Z,4.47
2017-06-15T12:56:50.224Z,4.87
2017-06-15T12:59:17.773Z,4.67
2017-06-15T13:01:45.417Z,4.50
2017-06-15T13:04:13.015Z,4.40
2017-06-15T13:06:40.667Z,5.17
2017-06-15T13:09:08.408Z,5.10
2017-06-15T13:11:35.963Z,5.10
2017-06-15T13:14:03.492Z,5.87
2017-06-15T13:16:31.096Z,4.57
2017-06-15T13:18:58.584Z,4.87
2017-06-15T13:21:26.124Z,4.90
2017-06-15T13:23:53.668Z,4.70
2017-06-15T13:26:21.218Z,4.40
2017-06-15T13:28:48.760Z,4.40
2017-06-15T13:31:16.304Z,5.30
2017-06-15T13:33:43.865Z,5.03
2017-06-15T13:36:11.389Z,4.77
2017-06-15T13:38:39.194Z,5.53
2017-06-15T13:41:07.464Z,5.53
2017-06-15T13:43:34.943Z,5.87
2017-06-15T13:46:02.701Z,6.00
2017-06-15T13:48:30.183Z,5.60
2017-06-15T13:50:57.667Z,5.73
2017-06-15T13:53:25.223Z,6.03
2017-06-15T13:55:52.756Z,5.87
2017-06-15T13:58:20.232Z,5.80
2017-06-15T14:00:47.944Z,6.90
2017-06-15T14:03:15.677Z,5.87
2017-06-15T14:05:44.032Z,5.93
2017-06-15T14:08:12.332Z,6.37
2017-06-15T14:10:39.864Z,6.20
2017-06-15T14:13:07.379Z,6.00
2017-06-15T14:15:34.961Z,6.10
2017-06-15T14:18:02.456Z,6.50
2017-06-15T14:20:29.953Z,6.50
2017-06-15T14:22:57.512Z,6.67
2017-06-15T14:25:25.032Z,6.33
2017-06-15T14:27:52.507Z,6.60
2017-06-15T14:30:19.992Z,6.40
2017-06-15T14:32:48.468Z,5.90
2017-06-15T14:35:16.016Z,5.93
2017-06-15T14:37:43.501Z,6.03
2017-06-15T14:40:11.101Z,6.50
2017-06-15T14:42:38.866Z,6.10
2017-06-15T14:45:06.400Z,6.40
2017-06-15T14:47:33.940Z,7.00
2017-06-15T14:50:01.480Z,6.90
2017-06-15T14:52:29.029Z,7.13
2017-06-15T14:54:56.512Z,6.80
2017-06-15T14:57:23.996Z,7.13
2017-06-15T14:59:52.272Z,7.40
2017-06-15T15:02:19.812Z,8.70
2017-06-15T15:04:47.560Z,15.43
2017-06-15T15:07:15.053Z,8.57
2017-06-15T15:09:42.549Z,7.23
2017-06-15T15:12:10.293Z,7.40
2017-06-15T15:14:37.776Z,6.80
2017-06-15T15:17:05.281Z,6.90
2017-06-15T15:19:33.024Z,8.50
2017-06-15T15:22:00.572Z,8.80
2017-06-15T15:24:28.064Z,11.87
2017-06-15T15:26:55.756Z,12.07
2017-06-15T15:29:23.249Z,13.20
2017-06-15T15:31:50.736Z,12.57
2017-06-15T15:34:18.288Z,13.00
2017-06-15T15:36:45.777Z,12.37
2017-06-15T15:39:13.372Z,16.63
2017-06-15T15:41:40.873Z,13.83
2017-06-15T15:44:08.366Z,12.57
2017-06-15T15:46:35.904Z,12.33
2017-06-15T15:49:03.448Z,12.77
2017-06-15T15:51:30.996Z,12.03
2017-06-15T15:53:58.533Z,11.63
2017-06-15T15:56:26.076Z,12.93
2017-06-15T15:58:53.620Z,11.80
2017-06-15T16:01:21.168Z,10.60
2017-06-15T16:03:48.709Z,11.93
2017-06-15T16:06:16.252Z,12.30
2017-06-15T16:08:43.757Z,10.67
2017-06-15T16:11:11.441Z,10.13
2017-06-15T16:13:39.018Z,11.23
2017-06-15T16:16:06.528Z,12.60
2017-06-15T16:18:34.277Z,11.53
2017-06-15T16:21:01.759Z,13.77
2017-06-15T16:23:29.260Z,13.03
2017-06-15T16:25:56.785Z,14.70
2017-06-15T16:28:24.396Z,16.90
2017-06-15T16:30:51.901Z,18.70
2017-06-15T16:33:19.437Z,20.27
2017-06-15T16:35:46.962Z,21.40
2017-06-15T16:38:14.497Z,22.80
2017-06-15T16:40:42.766Z,21.60
2017-06-15T16:43:11.045Z,22.67
2017-06-15T16:45:38.791Z,23.60
2017-06-15T16:48:06.276Z,21.43
2017-06-15T16:50:33.776Z,20.60
2017-06-15T16:53:02.265Z,18.03
2017-06-15T16:55:29.781Z,16.97
2017-06-15T16:57:57.337Z,19.60
2017-06-15T17:00:24.832Z,18.70
2017-06-15T17:02:52.315Z,21.10
2017-06-15T17:05:19.824Z,19.47
2017-06-15T17:07:48.113Z,21.37
2017-06-15T17:10:15.661Z,19.30
2017-06-15T17:12:43.181Z,17.60
2017-06-15T17:15:10.729Z,18.93
2017-06-15T17:17:38.984Z,20.10
2017-06-15T17:20:07.276Z,21.40
2017-06-15T17:22:34.765Z,20.67
2017-06-15T17:25:02.380Z,19.33
2017-06-15T17:27:29.873Z,20.10
2017-06-15T17:29:58.156Z,20.07
2017-06-15T17:32:25.696Z,21.50
2017-06-15T17:34:53.241Z,22.50
2017-06-15T17:37:20.989Z,21.47
2017-06-15T17:39:48.479Z,20.10
2017-06-15T17:42:15.991Z,21.37
2017-06-15T17:44:43.597Z,22.83
2017-06-15T17:47:11.854Z,24.80
2017-06-15T17:49:40.126Z,22.50
2017-06-15T17:52:07.660Z,23.20
2017-06-15T17:54:35.916Z,23.20
2017-06-15T17:57:04.173Z,25.13
2017-06-15T17:59:31.748Z,23.27
2017-06-15T18:01:59.292Z,24.67
2017-06-15T18:04:27.053Z,25.20
2017-06-15T18:06:54.540Z,23.37
2017-06-15T18:09:22.032Z,22.07
2017-06-15T18:11:49.564Z,25.43
2017-06-15T18:14:17.058Z,22.60
2017-06-15T18:16:44.557Z,23.40
2017-06-15T18:19:12.089Z,23.90
2017-06-15T18:21:39.576Z,21.70
2017-06-15T18:24:07.056Z,22.00
2017-06-15T18:26:35.544Z,22.13
2017-06-15T18:29:03.032Z,24.13
2017-06-15T18:31:30.528Z,23.57
2017-06-15T18:33:58.276Z,22.90
2017-06-15T18:36:25.827Z,23.60
2017-06-15T18:38:53.368Z,24.00
2017-06-15T18:41:20.909Z,26.63
2017-06-15T18:43:48.392Z,25.47
2017-06-15T18:46:15.905Z,26.60
2017-06-15T18:48:43.440Z,26.27
2017-06-15T18:51:10.936Z,26.00
2017-06-15T18:53:38.452Z,27.17
2017-06-15T18:56:05.948Z,27.90
2017-06-15T18:58:34.215Z,26.50
2017-06-15T19:01:01.773Z,27.50
2017-06-15T19:03:29.289Z,28.80
2017-06-15T19:05:57.574Z,27.63
2017-06-15T19:08:25.217Z,27.87
2017-06-15T19:10:52.732Z,31.13
2017-06-15T19:13:20.988Z,27.90
2017-06-15T19:15:48.564Z,29.17
2017-06-15T19:18:16.446Z,30.10
2017-06-15T19:20:43.934Z,30.07
2017-06-15T19:23:12.229Z,20.80
2017-06-15T19:25:39.773Z,23.97
2017-06-15T19:28:07.304Z,20.50
2017-06-15T19:30:34.953Z,17.43
2017-06-15T19:33:02.525Z,23.20
2017-06-15T19:35:30.012Z,14.17
2017-06-15T19:37:58.301Z,12.93
2017-06-15T19:40:25.841Z,12.40
2017-06-15T19:42:53.333Z,14.67
2017-06-15T19:45:20.931Z,14.80
2017-06-15T19:47:48.425Z,10.47
2017-06-15T19:50:15.960Z,9.83
2017-06-15T19:52:43.448Z,10.37
2017-06-15T19:55:10.948Z,12.43
2017-06-15T19:57:38.672Z,11.20
2017-06-15T20:00:06.197Z,11.13
2017-06-15T20:02:33.688Z,12.43
2017-06-15T20:05:01.212Z,12.87
2017-06-15T20:07:28.709Z,12.77
2017-06-15T20:09:56.226Z,12.10
2017-06-15T20:12:23.789Z,11.13
2017-06-15T20:14:52.039Z,12.33
2017-06-15T20:17:20.313Z,12.30
2017-06-15T20:19:48.085Z,12.20
2017-06-15T20:22:15.620Z,12.50
2017-06-15T20:24:48.908Z,13.30
2017-06-15T20:27:16.408Z,11.70
2017-06-15T20:29:44.730Z,12.90
2017-06-15T20:32:12.222Z,12.30
2017-06-15T20:34:40.500Z,12.17
2017-06-15T20:37:08.249Z,10.10
2017-06-15T20:39:35.792Z,9.57
2017-06-15T20:42:03.285Z,8.90
2017-06-15T20:44:30.782Z,10.87
2017-06-15T20:46:58.325Z,10.07
2017-06-15T20:49:25.858Z,11.63
2017-06-15T20:51:53.344Z,10.30
2017-06-15T20:54:20.881Z,10.60
2017-06-15T20:56:48.407Z,9.97
2017-06-15T20:59:15.889Z,8.90
2017-06-15T21:01:43.393Z,9.00
2017-06-15T21:04:10.941Z,9.40
2017-06-15T21:06:38.462Z,9.17
2017-06-15T21:09:06.013Z,8.60
2017-06-15T21:11:33.512Z,8.60
2017-06-15T21:14:01.097Z,8.67
2017-06-15T21:16:28.637Z,8.37
2017-06-15T21:18:56.388Z,8.67
2017-06-15T21:21:23.868Z,7.57
2017-06-15T21:23:51.360Z,8.47
2017-06-15T21:26:18.917Z,8.90
2017-06-15T21:28:46.400Z,9.53
2017-06-15T21:31:14.005Z,9.70
2017-06-15T21:33:41.531Z,9.10
2017-06-15T21:36:09.805Z,9.60
2017-06-15T21:38:37.293Z,8.87
2017-06-15T21:41:04.892Z,10.47
2017-06-15T21:43:32.384Z,10.23
2017-06-15T21:45:59.884Z,10.47
2017-06-15T21:48:27.420Z,11.00
2017-06-15T21:50:54.909Z,11.70
2017-06-15T21:53:22.404Z,10.33
2017-06-15T21:55:49.952Z,10.80
2017-06-15T21:58:17.440Z,9.73
2017-06-15T22:00:44.936Z,8.93
2017-06-15T22:03:12.484Z,9.27
2017-06-15T22:05:39.980Z,9.00
2017-06-15T22:08:07.660Z,7.77
2017-06-15T22:10:35.148Z,8.20
2017-06-15T22:13:02.649Z,7.20
2017-06-15T22:15:30.200Z,8.07
2017-06-15T22:17:57.696Z,6.67
2017-06-15T22:20:25.269Z,5.70
2017-06-15T22:22:52.820Z,6.97
2017-06-15T22:25:20.300Z,6.13
2017-06-15T22:27:47.895Z,6.90
2017-06-15T22:30:15.469Z,7.03
2017-06-15T22:32:43.005Z,7.57
2017-06-15T22:35:10.553Z,6.20
2017-06-15T22:37:38.289Z,7.03
2017-06-15T22:40:05.837Z,6.87
2017-06-15T22:42:33.321Z,7.30
2017-06-15T22:45:01.028Z,6.43
2017-06-15T22:47:28.563Z,5.53
2017-06-15T22:49:56.103Z,5.40
2017-06-15T22:52:23.657Z,5.30
2017-06-15T22:54:51.192Z,5.50
2017-06-15T22:57:18.740Z,5.33
2017-06-15T22:59:46.281Z,4.97
2017-06-15T23:02:13.839Z,5.07
2017-06-15T23:04:41.323Z,4.90
2017-06-15T23:07:09.028Z,5.70
2017-06-15T23:09:36.560Z,5.73
2017-06-15T23:12:04.082Z,5.10
2017-06-15T23:14:32.361Z,5.97
2017-06-15T23:16:59.909Z,4.80
2017-06-15T23:19:27.447Z,5.13
2017-06-15T23:21:55.008Z,5.10
2017-06-15T23:24:22.737Z,4.80
2017-06-15T23:26:50.283Z,4.87
2017-06-15T23:29:18.072Z,5.60
2017-06-15T23:31:45.616Z,4.80
2017-06-15T23:34:13.110Z,5.43
2017-06-15T23:36:40.677Z,4.77
2017-06-15T23:39:08.169Z,4.50
2017-06-15T23:41:35.748Z,5.17
2017-06-15T23:44:03.236Z,5.13
2017-06-15T23:46:30.712Z,5.30
2017-06-15T23:48:59.212Z,5.67
2017-06-15T23:51:26.739Z,5.00
2017-06-15T23:53:54.224Z,5.13
2017-06-15T23:56:21.725Z,5.10
2017-06-15T23:58:49.272Z,5.60
